createdAt,value
2022-12-14T00:01:48.915Z,-2.20
2022-12-14T00:04:17.194Z,-2.30
2022-12-14T00:06:44.006Z,-2.30
2022-12-14T00:09:11.095Z,-2.30
2022-12-14T00:11:41.807Z,-2.30
2022-12-14T00:14:08.566Z,-2.30
2022-12-14T00:16:36.073Z,-2.30
2022-12-14T00:19:11.019Z,-2.30
2022-12-14T00:21:40.209Z,-2.30
2022-12-14T00:24:07.154Z,-2.40
2022-12-14T00:26:34.252Z,-2.40
2022-12-14T00:29:02.175Z,-2.40
2022-12-14T00:31:29.965Z,-2.40
2022-12-14T00:34:01.023Z,-2.40
2022-12-14T00:36:28.003Z,-2.40
2022-12-14T00:38:57.377Z,-2.40
2022-12-14T00:41:24.257Z,-2.40
2022-12-14T00:43:53.189Z,-2.50
2022-12-14T00:46:20.480Z,-2.50
2022-12-14T00:48:47.390Z,-2.60
2022-12-14T00:51:17.096Z,-2.60
2022-12-14T00:53:46.358Z,-2.50
2022-12-14T00:56:15.709Z,-2.50
2022-12-14T00:58:42.600Z,-2.50
2022-12-14T01:01:14.644Z,-2.50
2022-12-14T01:03:41.978Z,-2.50
2022-12-14T01:06:22.119Z,-2.50
2022-12-14T01:08:49.461Z,-2.50
2022-12-14T01:11:21.005Z,-2.60
2022-12-14T01:13:49.625Z,-2.70
2022-12-14T01:16:17.108Z,-2.70
2022-12-14T01:18:44.077Z,-2.70
2022-12-14T01:21:22.400Z,-2.70
2022-12-14T01:23:58.078Z,-2.70
2022-12-14T01:26:28.585Z,-2.70
2022-12-14T01:28:58.447Z,-2.70
2022-12-14T01:31:30.517Z,-2.70
2022-12-14T01:34:00.201Z,-2.70
2022-12-14T01:36:32.029Z,-2.70
2022-12-14T01:39:01.614Z,-2.80
2022-12-14T01:41:36.785Z,-2.70
2022-12-14T01:44:23.553Z,-2.70
2022-12-14T01:46:53.660Z,-2.70
2022-12-14T01:49:33.520Z,-2.70
2022-12-14T01:52:16.718Z,-2.80
2022-12-14T01:55:14.485Z,-2.80
2022-12-14T01:57:47.193Z,-2.90
2022-12-14T02:00:18.077Z,-2.90
2022-12-14T02:02:52.438Z,-2.90
2022-12-14T02:05:23.508Z,-2.90
2022-12-14T02:07:52.870Z,-2.90
2022-12-14T02:10:21.432Z,-3.00
2022-12-14T02:13:06.623Z,-3.00
2022-12-14T02:15:34.547Z,-2.90
2022-12-14T02:18:05.976Z,-3.00
2022-12-14T02:20:47.138Z,-3.00
2022-12-14T02:23:34.095Z,-3.10
2022-12-14T02:26:00.918Z,-3.10
2022-12-14T02:28:46.605Z,-3.10
2022-12-14T02:31:30.932Z,-3.10
2022-12-14T02:34:11.408Z,-3.20
2022-12-14T02:36:48.116Z,-3.20
2022-12-14T02:39:49.045Z,-3.20
2022-12-14T02:42:21.242Z,-3.20
2022-12-14T02:45:01.466Z,-3.20
2022-12-14T02:47:40.842Z,-3.30
2022-12-14T02:50:49.322Z,-3.30
2022-12-14T02:53:46.113Z,-3.30
2022-12-14T02:56:24.878Z,-3.30
2022-12-14T02:58:53.575Z,-3.30
2022-12-14T03:01:27.710Z,-3.30
2022-12-14T03:03:55.727Z,-3.30
2022-12-14T03:06:27.834Z,-3.30
2022-12-14T03:09:01.973Z,-3.40
2022-12-14T03:11:48.938Z,-3.40
2022-12-14T03:14:32.891Z,-3.50
2022-12-14T03:17:19.195Z,-3.50
2022-12-14T03:19:56.136Z,-3.50
2022-12-14T03:22:31.812Z,-3.50
2022-12-14T03:25:08.666Z,-3.50
2022-12-14T03:27:42.519Z,-3.50
2022-12-14T03:30:23.740Z,-3.60
2022-12-14T03:33:11.630Z,-3.60
2022-12-14T03:35:45.929Z,-3.60
2022-12-14T03:38:29.241Z,-3.60
2022-12-14T03:41:03.179Z,-3.60
2022-12-14T03:44:07.648Z,-3.50
2022-12-14T03:46:57.794Z,-3.60
2022-12-14T03:49:51.102Z,-3.60
2022-12-14T03:52:40.522Z,-3.60
2022-12-14T03:55:36.633Z,-3.60
2022-12-14T03:58:25.063Z,-3.60
2022-12-14T04:01:02.281Z,-3.60
2022-12-14T04:03:45.713Z,-3.60
2022-12-14T04:06:39.687Z,-3.70
2022-12-14T04:09:29.614Z,-3.60
2022-12-14T04:12:38.596Z,-3.70
2022-12-14T04:15:38.541Z,-3.70
2022-12-14T04:18:31.444Z,-3.70
2022-12-14T04:21:09.864Z,-3.70
2022-12-14T04:24:01.282Z,-3.60
2022-12-14T04:26:33.778Z,-3.60
2022-12-14T04:29:25.854Z,-3.60
2022-12-14T04:32:09.061Z,-3.60
2022-12-14T04:34:38.991Z,-3.70
2022-12-14T04:37:14.077Z,-3.90
2022-12-14T04:40:05.255Z,-3.80
2022-12-14T04:42:35.652Z,-3.80
2022-12-14T04:45:17.221Z,-3.80
2022-12-14T04:47:55.486Z,-3.80
2022-12-14T04:50:30.343Z,-3.90
2022-12-14T04:53:15.641Z,-3.90
2022-12-14T04:55:42.548Z,-3.90
2022-12-14T04:58:19.882Z,-3.90
2022-12-14T05:01:11.135Z,-3.90
2022-12-14T05:04:12.144Z,-3.90
2022-12-14T05:07:07.891Z,-3.80
2022-12-14T05:09:55.275Z,-3.80
2022-12-14T05:12:37.135Z,-3.80
2022-12-14T05:15:15.913Z,-3.80
2022-12-14T05:17:43.040Z,-3.90
2022-12-14T05:20:15.526Z,-3.90
2022-12-14T05:22:50.320Z,-3.90
2022-12-14T05:25:17.311Z,-4.00
2022-12-14T05:27:46.654Z,-4.10
2022-12-14T05:30:13.906Z,-4.10
2022-12-14T05:32:40.847Z,-4.10
2022-12-14T05:35:09.799Z,-4.10
2022-12-14T05:37:36.712Z,-4.10
2022-12-14T05:40:03.911Z,-4.00
2022-12-14T05:42:31.389Z,-4.00
2022-12-14T05:45:00.642Z,-4.00
2022-12-14T05:47:27.815Z,-4.00
2022-12-14T05:49:54.673Z,-4.10
2022-12-14T05:52:24.092Z,-4.10
2022-12-14T05:54:51.002Z,-4.10
2022-12-14T05:57:18.049Z,-4.10
2022-12-14T05:59:44.965Z,-4.10
2022-12-14T06:02:12.128Z,-4.10
2022-12-14T06:04:39.169Z,-4.10
2022-12-14T06:07:09.976Z,-4.00
2022-12-14T06:09:36.804Z,-4.00
2022-12-14T06:12:03.826Z,-4.10
2022-12-14T06:14:33.024Z,-4.00
2022-12-14T06:17:00.220Z,-4.00
2022-12-14T06:19:27.066Z,-4.00
2022-12-14T06:21:53.919Z,-4.00
2022-12-14T06:24:20.955Z,-4.00
2022-12-14T06:26:47.872Z,-4.00
2022-12-14T06:29:21.705Z,-4.00
2022-12-14T06:31:49.393Z,-4.10
2022-12-14T06:34:17.607Z,-4.10
2022-12-14T06:36:46.982Z,-4.20
2022-12-14T06:39:19.584Z,-4.20
2022-12-14T06:41:50.297Z,-4.20
2022-12-14T06:44:17.263Z,-4.20
2022-12-14T06:46:44.828Z,-4.20
2022-12-14T06:49:14.812Z,-4.10
2022-12-14T06:51:42.171Z,-4.20
2022-12-14T06:54:11.860Z,-4.20
2022-12-14T06:56:39.313Z,-4.20
2022-12-14T06:59:08.517Z,-4.20
2022-12-14T07:01:36.233Z,-4.20
2022-12-14T07:04:03.625Z,-4.20
2022-12-14T07:06:34.734Z,-4.20
2022-12-14T07:09:02.289Z,-4.10
2022-12-14T07:12:35.594Z,-4.10
2022-12-14T07:15:05.427Z,-4.10
2022-12-14T07:17:37.470Z,-4.10
2022-12-14T07:20:06.836Z,-4.10
2022-12-14T07:22:34.897Z,-4.10
2022-12-14T07:25:04.346Z,-4.10
2022-12-14T07:27:33.339Z,-4.10
2022-12-14T07:30:02.791Z,-4.10
2022-12-14T07:32:32.121Z,-4.10
2022-12-14T07:34:58.982Z,-4.10
2022-12-14T07:37:25.774Z,-4.10
2022-12-14T07:39:52.716Z,-4.10
2022-12-14T07:42:19.575Z,-4.10
2022-12-14T07:44:47.364Z,-4.10
2022-12-14T07:47:16.819Z,-4.10
2022-12-14T07:49:44.384Z,-4.00
2022-12-14T07:52:11.185Z,-4.10
2022-12-14T07:54:38.054Z,-4.00
2022-12-14T07:57:04.939Z,-4.00
2022-12-14T07:59:31.874Z,-4.00
2022-12-14T08:02:01.269Z,-4.00
2022-12-14T08:04:28.348Z,-4.00
2022-12-14T08:06:55.354Z,-4.00
2022-12-14T08:09:24.760Z,-3.90
2022-12-14T08:11:51.606Z,-3.90
2022-12-14T08:14:22.467Z,-3.80
2022-12-14T08:16:50.186Z,-3.80
2022-12-14T08:19:20.028Z,-3.80
2022-12-14T08:21:47.293Z,-3.80
2022-12-14T08:24:16.739Z,-3.80
2022-12-14T08:26:48.979Z,-3.80
2022-12-14T08:29:16.697Z,-3.80
2022-12-14T08:31:43.601Z,-3.70
2022-12-14T08:34:12.951Z,-3.70
2022-12-14T08:36:39.821Z,-3.70
2022-12-14T08:39:09.866Z,-3.70
2022-12-14T08:41:36.736Z,-3.70
2022-12-14T08:44:04.749Z,-3.60
2022-12-14T08:46:33.826Z,-3.70
2022-12-14T08:49:00.764Z,-3.60
2022-12-14T08:51:28.580Z,-3.60
2022-12-14T08:53:56.408Z,-3.50
2022-12-14T08:56:25.823Z,-3.50
2022-12-14T08:58:53.016Z,-3.50
2022-12-14T09:02:30.191Z,-3.50
2022-12-14T09:04:57.215Z,-3.50
2022-12-14T09:07:24.064Z,-3.40
2022-12-14T09:09:50.925Z,-3.40
2022-12-14T09:12:17.821Z,-3.40
2022-12-14T09:14:46.568Z,-3.40
2022-12-14T09:17:17.077Z,-3.30
2022-12-14T09:19:46.542Z,-3.30
2022-12-14T09:22:15.726Z,-3.30
2022-12-14T09:24:44.977Z,-3.30
2022-12-14T09:27:11.921Z,-3.20
2022-12-14T09:30:04.447Z,-3.20
2022-12-14T09:32:33.754Z,-3.20
2022-12-14T09:35:00.702Z,-3.20
2022-12-14T09:37:27.612Z,-3.10
2022-12-14T09:39:54.664Z,-3.00
2022-12-14T09:42:42.795Z,-3.00
2022-12-14T09:45:33.819Z,-3.00
2022-12-14T09:48:20.315Z,-2.90
2022-12-14T09:50:54.200Z,-2.90
2022-12-14T09:53:22.342Z,-2.80
2022-12-14T09:55:55.835Z,-2.80
2022-12-14T09:58:28.515Z,-2.80
2022-12-14T10:01:20.643Z,-2.80
2022-12-14T10:04:24.472Z,-2.70
2022-12-14T10:07:06.513Z,-2.70
2022-12-14T10:10:04.446Z,-2.60
2022-12-14T10:12:47.327Z,-2.50
2022-12-14T10:15:54.939Z,-2.50
2022-12-14T10:19:02.337Z,-2.50
2022-12-14T10:21:50.629Z,-2.40
2022-12-14T10:24:24.184Z,-2.40
2022-12-14T10:26:53.545Z,-2.40
2022-12-14T10:29:55.770Z,-2.30
2022-12-14T10:32:33.075Z,-2.30
2022-12-14T10:35:20.153Z,-2.30
2022-12-14T10:38:04.511Z,-2.30
2022-12-14T10:40:36.994Z,-2.30
2022-12-14T10:43:19.038Z,-2.30
2022-12-14T10:45:57.476Z,-2.20
2022-12-14T10:48:50.722Z,-2.10
2022-12-14T10:51:44.382Z,-2.10
2022-12-14T10:54:34.531Z,-2.00
2022-12-14T10:57:03.781Z,-2.00
2022-12-14T10:59:42.317Z,-2.00
2022-12-14T11:02:19.044Z,-2.00
2022-12-14T11:04:53.270Z,-2.00
2022-12-14T11:07:25.657Z,-2.10
2022-12-14T11:09:53.222Z,-2.10
2022-12-14T11:12:25.712Z,-2.10
2022-12-14T11:14:57.316Z,-2.10
2022-12-14T11:17:44.168Z,-2.10
2022-12-14T11:20:22.487Z,-2.00
2022-12-14T11:23:05.885Z,-1.90
2022-12-14T11:25:45.004Z,-1.90
2022-12-14T11:28:35.970Z,-1.80
2022-12-14T11:31:12.124Z,-1.70
2022-12-14T11:33:50.132Z,-1.70
2022-12-14T11:36:25.153Z,-1.60
2022-12-14T11:39:00.246Z,-1.60
2022-12-14T11:41:38.792Z,-1.50
2022-12-14T11:44:16.000Z,-1.50
2022-12-14T11:46:58.152Z,-1.40
2022-12-14T11:49:29.643Z,-1.40
2022-12-14T11:52:04.630Z,-1.40
2022-12-14T11:54:42.663Z,-1.40
2022-12-14T11:57:28.497Z,-1.30
2022-12-14T11:59:59.608Z,-1.40
2022-12-14T12:02:46.846Z,-1.30
2022-12-14T12:05:20.562Z,-1.30
2022-12-14T12:07:50.549Z,-1.20
2022-12-14T12:10:25.377Z,-1.20
2022-12-14T12:12:57.777Z,-1.20
2022-12-14T12:15:32.484Z,-1.20
2022-12-14T12:18:20.578Z,-1.20
2022-12-14T12:21:06.985Z,-1.20
2022-12-14T12:24:08.251Z,-1.20
2022-12-14T12:26:43.409Z,-1.20
2022-12-14T12:29:26.042Z,-1.20
2022-12-14T12:32:10.420Z,-1.20
2022-12-14T12:34:49.774Z,-1.20
2022-12-14T12:37:29.648Z,-1.20
2022-12-14T12:40:03.435Z,-1.20
2022-12-14T12:43:02.868Z,-1.20
2022-12-14T12:45:54.221Z,-1.30
2022-12-14T12:48:36.142Z,-1.30
2022-12-14T12:51:10.315Z,-1.30
2022-12-14T12:53:45.183Z,-1.40
2022-12-14T12:56:17.000Z,-1.40
2022-12-14T12:58:52.693Z,-1.40
2022-12-14T13:01:49.783Z,-1.40
2022-12-14T13:04:28.140Z,-1.40
2022-12-14T13:07:00.788Z,-1.40
2022-12-14T13:09:45.942Z,-1.40
2022-12-14T13:12:24.338Z,-1.40
2022-12-14T13:14:55.047Z,-1.40
2022-12-14T13:17:49.528Z,-1.40
2022-12-14T13:20:30.008Z,-1.40
2022-12-14T13:23:05.760Z,-1.50
2022-12-14T13:26:01.066Z,-1.50
2022-12-14T13:29:30.894Z,-1.60
2022-12-14T13:32:20.567Z,-1.60
2022-12-14T13:35:24.765Z,-1.60
2022-12-14T13:38:18.812Z,-1.60
2022-12-14T13:41:02.069Z,-1.70
2022-12-14T13:44:10.797Z,-1.80
2022-12-14T13:46:38.002Z,-1.80
2022-12-14T13:49:15.240Z,-1.80
2022-12-14T13:51:48.355Z,-1.80
2022-12-14T13:54:27.640Z,-1.80
2022-12-14T13:57:11.481Z,-1.80
2022-12-14T13:59:44.902Z,-1.80
2022-12-14T14:02:32.571Z,-1.80
2022-12-14T14:05:34.579Z,-1.90
2022-12-14T14:08:30.375Z,-1.90
2022-12-14T14:11:37.620Z,-1.90
2022-12-14T14:14:29.058Z,-2.00
2022-12-14T14:17:07.017Z,-1.90
2022-12-14T14:19:39.444Z,-2.00
2022-12-14T14:22:25.707Z,-2.00
2022-12-14T14:25:09.604Z,-2.00
2022-12-14T14:27:40.108Z,-2.00
2022-12-14T14:30:42.908Z,-2.00
2022-12-14T14:33:45.478Z,-2.10
2022-12-14T14:36:36.845Z,-2.10
2022-12-14T14:39:54.787Z,-2.10
2022-12-14T14:42:25.010Z,-2.10
2022-12-14T14:44:55.919Z,-2.10
2022-12-14T14:47:38.258Z,-2.10
2022-12-14T14:50:20.078Z,-2.10
2022-12-14T14:52:59.188Z,-2.10
2022-12-14T14:58:38.526Z,-2.10
2022-12-14T15:01:24.943Z,-2.10
2022-12-14T15:04:10.614Z,-2.20
2022-12-14T15:06:47.129Z,-2.20
2022-12-14T15:09:22.344Z,-2.20
2022-12-14T15:11:56.433Z,-2.30
2022-12-14T15:14:46.624Z,-2.30
2022-12-14T15:17:21.657Z,-2.30
2022-12-14T15:19:53.949Z,-2.30
2022-12-14T15:22:25.009Z,-2.30
2022-12-14T15:24:55.841Z,-2.30
2022-12-14T15:27:24.557Z,-2.30
2022-12-14T15:29:52.155Z,-2.20
2022-12-14T15:32:21.823Z,-2.20
2022-12-14T15:34:58.349Z,-2.30
2022-12-14T15:37:48.817Z,-2.20
2022-12-14T15:40:24.158Z,-2.20
2022-12-14T15:42:59.635Z,-2.20
2022-12-14T15:45:32.982Z,-2.30
2022-12-14T15:48:23.508Z,-2.20
2022-12-14T15:50:56.638Z,-2.30
2022-12-14T15:53:37.573Z,-2.30
2022-12-14T15:56:23.279Z,-2.30
2022-12-14T15:58:52.210Z,-2.30
2022-12-14T16:01:23.154Z,-2.40
2022-12-14T16:03:54.576Z,-2.40
2022-12-14T16:06:23.585Z,-2.40
2022-12-14T16:09:11.387Z,-2.40
2022-12-14T16:11:46.729Z,-2.40
2022-12-14T16:14:29.221Z,-2.40
2022-12-14T16:16:56.458Z,-2.50
2022-12-14T16:19:33.687Z,-2.40
2022-12-14T16:22:11.841Z,-2.50
2022-12-14T16:24:54.504Z,-2.50
2022-12-14T16:27:25.642Z,-2.60
2022-12-14T16:30:17.142Z,-2.50
2022-12-14T16:32:50.030Z,-2.50
2022-12-14T16:35:24.735Z,-2.60
2022-12-14T16:37:56.330Z,-2.60
2022-12-14T16:40:38.787Z,-2.60
2022-12-14T16:43:34.630Z,-2.60
2022-12-14T16:46:05.108Z,-2.60
2022-12-14T16:48:33.522Z,-2.70
2022-12-14T16:52:06.968Z,-2.60
2022-12-14T16:54:32.737Z,-2.70
2022-12-14T16:57:17.191Z,-2.70
2022-12-14T16:59:46.319Z,-2.70
2022-12-14T17:02:38.275Z,-2.80
2022-12-14T17:05:13.299Z,-2.80
2022-12-14T17:07:40.662Z,-2.80
2022-12-14T17:10:19.742Z,-2.90
2022-12-14T17:12:47.426Z,-2.80
2022-12-14T17:15:19.595Z,-2.80
2022-12-14T17:17:49.542Z,-2.80
2022-12-14T17:20:26.242Z,-2.80
2022-12-14T17:22:55.031Z,-2.80
2022-12-14T17:25:22.009Z,-2.80
2022-12-14T17:27:49.506Z,-2.80
2022-12-14T17:30:18.751Z,-2.80
2022-12-14T17:32:46.757Z,-2.90
2022-12-14T17:35:28.605Z,-2.90
2022-12-14T17:37:56.010Z,-2.80
2022-12-14T17:40:26.970Z,-2.80
2022-12-14T17:42:58.445Z,-2.80
2022-12-14T17:45:29.925Z,-2.80
2022-12-14T17:47:57.776Z,-2.90
2022-12-14T17:50:27.213Z,-2.90
2022-12-14T17:52:54.137Z,-2.90
2022-12-14T17:55:22.337Z,-3.00
2022-12-14T17:58:14.305Z,-3.00
2022-12-14T18:00:59.628Z,-3.00
2022-12-14T18:03:36.794Z,-3.00
2022-12-14T18:06:06.039Z,-3.10
2022-12-14T18:08:32.903Z,-3.10
2022-12-14T18:11:11.837Z,-3.00
2022-12-14T18:13:40.938Z,-3.00
2022-12-14T18:16:12.409Z,-2.90
2022-12-14T18:18:39.638Z,-2.90
2022-12-14T18:21:18.152Z,-2.90
2022-12-14T18:23:46.174Z,-2.90
2022-12-14T18:26:13.484Z,-2.90
2022-12-14T18:28:42.868Z,-3.00
2022-12-14T18:31:20.563Z,-3.00
2022-12-14T18:33:49.873Z,-3.00
2022-12-14T18:36:19.834Z,-3.00
2022-12-14T18:38:53.319Z,-3.00
2022-12-14T18:41:23.921Z,-3.10
2022-12-14T18:43:51.265Z,-3.10
2022-12-14T18:46:18.305Z,-3.10
2022-12-14T18:48:47.907Z,-3.10
2022-12-14T18:51:17.105Z,-3.10
2022-12-14T18:53:43.969Z,-3.10
2022-12-14T18:56:13.584Z,-3.10
2022-12-14T18:58:41.865Z,-3.10
2022-12-14T19:01:15.040Z,-3.10
2022-12-14T19:03:42.931Z,-3.10
2022-12-14T19:09:02.579Z,-3.10
2022-12-14T19:11:35.612Z,-3.10
2022-12-14T19:14:02.592Z,-3.10
2022-12-14T19:16:29.745Z,-3.20
2022-12-14T19:18:56.831Z,-3.20
2022-12-14T19:21:27.894Z,-3.20
2022-12-14T19:23:56.939Z,-3.20
2022-12-14T19:30:49.237Z,-3.30
2022-12-14T19:33:19.186Z,-3.30
2022-12-14T19:35:46.177Z,-3.30
2022-12-14T19:38:14.562Z,-3.30
2022-12-14T19:40:42.089Z,-3.30
2022-12-14T19:43:13.907Z,-3.40
2022-12-14T19:45:42.871Z,-3.30
2022-12-14T19:48:13.095Z,-3.40
2022-12-14T19:50:40.255Z,-3.40
2022-12-14T19:53:07.190Z,-3.40
2022-12-14T19:55:34.639Z,-3.40
2022-12-14T19:58:01.542Z,-3.40
2022-12-14T20:00:28.409Z,-3.40
2022-12-14T20:02:56.409Z,-3.40
2022-12-14T20:05:25.928Z,-3.40
2022-12-14T20:07:52.842Z,-3.40
2022-12-14T20:10:24.519Z,-3.40
2022-12-14T20:12:51.371Z,-3.40
2022-12-14T20:15:18.349Z,-3.30
2022-12-14T20:17:45.249Z,-3.40
2022-12-14T20:20:14.444Z,-3.40
2022-12-14T20:22:43.789Z,-3.40
2022-12-14T20:25:10.643Z,-3.40
2022-12-14T20:27:40.599Z,-3.40
2022-12-14T20:30:11.438Z,-3.40
2022-12-14T20:32:41.148Z,-3.40
2022-12-14T20:35:10.799Z,-3.40
2022-12-14T20:37:40.006Z,-3.40
2022-12-14T20:40:10.250Z,-3.40
2022-12-14T20:42:37.505Z,-3.40
2022-12-14T20:45:07.351Z,-3.40
2022-12-14T20:47:37.468Z,-3.40
2022-12-14T20:50:06.922Z,-3.40
2022-12-14T20:52:33.845Z,-3.40
2022-12-14T20:55:03.258Z,-3.40
2022-12-14T20:57:33.030Z,-3.40
2022-12-14T21:00:00.108Z,-3.50
2022-12-14T21:02:27.110Z,-3.40
2022-12-14T21:04:56.178Z,-3.40
2022-12-14T21:07:28.938Z,-3.40
2022-12-14T21:09:58.375Z,-3.50
2022-12-14T21:12:27.477Z,-3.50
2022-12-14T21:14:59.308Z,-3.50
2022-12-14T21:17:29.059Z,-3.50
2022-12-14T21:19:58.494Z,-3.50
2022-12-14T21:22:27.846Z,-3.50
2022-12-14T21:25:04.311Z,-3.50
2022-12-14T21:27:34.484Z,-3.50
2022-12-14T21:30:05.741Z,-3.50
2022-12-14T21:32:35.178Z,-3.50
2022-12-14T21:35:06.880Z,-3.50
2022-12-14T21:37:37.732Z,-3.50
2022-12-14T21:40:05.139Z,-3.50
2022-12-14T21:42:31.963Z,-3.50
2022-12-14T21:44:58.836Z,-3.50
2022-12-14T21:47:29.535Z,-3.50
2022-12-14T21:49:56.821Z,-3.50
2022-12-14T21:52:28.370Z,-3.50
2022-12-14T21:54:59.685Z,-3.50
2022-12-14T21:57:49.983Z,-3.50
2022-12-14T22:00:18.911Z,-3.60
2022-12-14T22:02:45.886Z,-3.50
2022-12-14T22:05:13.072Z,-3.50
2022-12-14T22:07:39.944Z,-3.50
2022-12-14T22:10:07.095Z,-3.60
2022-12-14T22:12:33.980Z,-3.60
2022-12-14T22:15:08.628Z,-3.60
2022-12-14T22:17:37.974Z,-3.60
2022-12-14T22:20:08.249Z,-3.60
2022-12-14T22:22:37.258Z,-3.60
2022-12-14T22:25:04.646Z,-3.60
2022-12-14T22:27:31.511Z,-3.60
2022-12-14T22:29:58.439Z,-3.70
2022-12-14T22:32:25.326Z,-3.70
2022-12-14T22:34:52.173Z,-3.70
2022-12-14T22:37:19.241Z,-3.70
2022-12-14T22:39:48.430Z,-3.70
2022-12-14T22:42:19.830Z,-3.70
2022-12-14T22:44:48.969Z,-3.70
2022-12-14T22:47:16.026Z,-3.80
2022-12-14T22:49:44.958Z,-3.80
2022-12-14T22:52:11.953Z,-3.80
2022-12-14T22:54:41.696Z,-3.80
2022-12-14T22:57:20.238Z,-3.80
2022-12-14T22:59:53.800Z,-3.80
2022-12-14T23:02:20.963Z,-3.90
2022-12-14T23:04:50.176Z,-3.90
2022-12-14T23:07:17.214Z,-3.90
2022-12-14T23:10:03.090Z,-3.90
2022-12-14T23:12:48.738Z,-3.90
2022-12-14T23:15:36.799Z,-4.00
2022-12-14T23:18:26.869Z,-3.90
2022-12-14T23:21:12.898Z,-3.90
2022-12-14T23:23:59.761Z,-4.00
2022-12-14T23:26:45.484Z,-3.90
2022-12-14T23:29:30.938Z,-4.00
2022-12-14T23:32:16.477Z,-4.00
2022-12-14T23:35:01.771Z,-4.00
2022-12-14T23:37:47.128Z,-4.00
2022-12-14T23:40:32.456Z,-4.00
2022-12-14T23:43:35.455Z,-4.00
2022-12-14T23:46:22.841Z,-4.00
2022-12-14T23:49:15.094Z,-4.00
2022-12-14T23:52:01.181Z,-4.00
2022-12-14T23:54:46.588Z,-4.00
2022-12-14T23:57:32.130Z,-4.00
